sensor_id;sensor_type;location;lat;lon;timestamp;pressure;altitude;pressure_sealevel;temperature;humidity
70254;BME280;57649;42.968;1.608;2023-10-19T00:00:54;95680.63;;;16.39;100.00
70254;BME280;57649;42.968;1.608;2023-10-19T00:03:22;95674.72;;;16.42;100.00
70254;BME280;57649;42.968;1.608;2023-10-19T00:05:49;95663.13;;;16.41;100.00
70254;BME280;57649;42.968;1.608;2023-10-19T00:08:15;95640.03;;;16.33;100.00
70254;BME280;57649;42.968;1.608;2023-10-19T00:10:52;95635.47;;;16.34;100.00
70254;BME280;57649;42.968;1.608;2023-10-19T00:13:34;95609.19;;;16.29;100.00
70254;BME280;57649;42.968;1.608;2023-10-19T00:16:07;95611.91;;;16.29;100.00
70254;BME280;57649;42.968;1.608;2023-10-19T00:18:45;95598.72;;;16.33;100.00
70254;BME280;57649;42.968;1.608;2023-10-19T00:21:14;95599.53;;;16.33;100.00
70254;BME280;57649;42.968;1.608;2023-10-19T00:23:51;95592.59;;;16.38;100.00
70254;BME280;57649;42.968;1.608;2023-10-19T00:26:21;95586.47;;;16.25;100.00
70254;BME280;57649;42.968;1.608;2023-10-19T00:28:48;95589.72;;;16.27;100.00
70254;BME280;57649;42.968;1.608;2023-10-19T00:31:18;95586.72;;;16.24;100.00
70254;BME280;57649;42.968;1.608;2023-10-19T00:33:45;95570.03;;;16.27;100.00
70254;BME280;57649;42.968;1.608;2023-10-19T00:36:11;95558.13;;;16.28;100.00
70254;BME280;57649;42.968;1.608;2023-10-19T00:38:41;95561.97;;;16.32;100.00
70254;BME280;57649;42.968;1.608;2023-10-19T00:41:12;95567.69;;;16.35;100.00
70254;BME280;57649;42.968;1.608;2023-10-19T00:43:42;95566.06;;;16.34;100.00
70254;BME280;57649;42.968;1.608;2023-10-19T00:46:11;95566.88;;;16.35;100.00
70254;BME280;57649;42.968;1.608;2023-10-19T00:48:45;95556.56;;;16.32;100.00
70254;BME280;57649;42.968;1.608;2023-10-19T00:51:17;95569.81;;;16.33;100.00
70254;BME280;57649;42.968;1.608;2023-10-19T00:53:57;95557.91;;;16.29;100.00
70254;BME280;57649;42.968;1.608;2023-10-19T00:56:24;95537.88;;;16.25;100.00
70254;BME280;57649;42.968;1.608;2023-10-19T00:58:57;95525.75;;;16.28;100.00
70254;BME280;57649;42.968;1.608;2023-10-19T01:01:34;95517.72;;;16.33;100.00
70254;BME280;57649;42.968;1.608;2023-10-19T01:04:05;95524.44;;;16.30;100.00
70254;BME280;57649;42.968;1.608;2023-10-19T01:06:31;95525.19;;;16.26;100.00
70254;BME280;57649;42.968;1.608;2023-10-19T01:08:58;95513.00;;;16.23;100.00
70254;BME280;57649;42.968;1.608;2023-10-19T01:11:23;95510.97;;;16.13;100.00
70254;BME280;57649;42.968;1.608;2023-10-19T01:13:53;95512.88;;;16.13;100.00
70254;BME280;57649;42.968;1.608;2023-10-19T01:16:19;95511.81;;;16.14;100.00
70254;BME280;57649;42.968;1.608;2023-10-19T01:18:50;95495.09;;;16.17;100.00
70254;BME280;57649;42.968;1.608;2023-10-19T01:21:23;95491.34;;;16.18;100.00
70254;BME280;57649;42.968;1.608;2023-10-19T01:23:53;95484.94;;;16.24;100.00
70254;BME280;57649;42.968;1.608;2023-10-19T01:26:19;95493.91;;;16.30;100.00
70254;BME280;57649;42.968;1.608;2023-10-19T01:28:47;95480.16;;;16.31;100.00
70254;BME280;57649;42.968;1.608;2023-10-19T01:31:18;95476.59;;;16.26;100.00
70254;BME280;57649;42.968;1.608;2023-10-19T01:33:52;95483.38;;;16.28;100.00
70254;BME280;57649;42.968;1.608;2023-10-19T01:36:21;95479.53;;;16.24;100.00
70254;BME280;57649;42.968;1.608;2023-10-19T01:38:54;95476.03;;;16.24;100.00
70254;BME280;57649;42.968;1.608;2023-10-19T01:41:22;95463.56;;;16.23;100.00
70254;BME280;57649;42.968;1.608;2023-10-19T01:43:50;95455.13;;;16.14;100.00
70254;BME280;57649;42.968;1.608;2023-10-19T01:46:19;95445.88;;;16.10;100.00
70254;BME280;57649;42.968;1.608;2023-10-19T01:48:50;95432.34;;;16.05;100.00
70254;BME280;57649;42.968;1.608;2023-10-19T01:51:19;95438.09;;;16.13;100.00
70254;BME280;57649;42.968;1.608;2023-10-19T01:53:46;95426.97;;;16.10;100.00
70254;BME280;57649;42.968;1.608;2023-10-19T01:56:12;95421.53;;;16.05;100.00
70254;BME280;57649;42.968;1.608;2023-10-19T01:58:41;95409.03;;;15.98;100.00
70254;BME280;57649;42.968;1.608;2023-10-19T02:01:09;95417.38;;;15.97;100.00
70254;BME280;57649;42.968;1.608;2023-10-19T02:03:38;95412.38;;;16.06;100.00
70254;BME280;57649;42.968;1.608;2023-10-19T02:06:08;95390.16;;;15.98;100.00
70254;BME280;57649;42.968;1.608;2023-10-19T02:08:59;95372.97;;;16.05;100.00
70254;BME280;57649;42.968;1.608;2023-10-19T02:11:26;95374.56;;;16.06;100.00
70254;BME280;57649;42.968;1.608;2023-10-19T02:13:54;95352.50;;;16.09;100.00
70254;BME280;57649;42.968;1.608;2023-10-19T02:16:21;95358.50;;;16.16;100.00
70254;BME280;57649;42.968;1.608;2023-10-19T02:18:58;95355.69;;;16.06;100.00
70254;BME280;57649;42.968;1.608;2023-10-19T02:21:23;95335.31;;;15.93;100.00
70254;BME280;57649;42.968;1.608;2023-10-19T02:23:55;95326.28;;;15.82;100.00
70254;BME280;57649;42.968;1.608;2023-10-19T02:26:23;95332.69;;;15.76;100.00
70254;BME280;57649;42.968;1.608;2023-10-19T02:28:51;95336.38;;;15.70;100.00
70254;BME280;57649;42.968;1.608;2023-10-19T02:31:18;95333.75;;;15.75;100.00
70254;BME280;57649;42.968;1.608;2023-10-19T02:33:45;95324.13;;;15.84;100.00
70254;BME280;57649;42.968;1.608;2023-10-19T02:36:13;95308.06;;;15.94;100.00
70254;BME280;57649;42.968;1.608;2023-10-19T02:38:41;95322.44;;;16.00;100.00
70254;BME280;57649;42.968;1.608;2023-10-19T02:41:08;95335.63;;;15.96;100.00
70254;BME280;57649;42.968;1.608;2023-10-19T02:43:35;95317.19;;;15.88;100.00
70254;BME280;57649;42.968;1.608;2023-10-19T02:46:01;95326.34;;;15.87;100.00
70254;BME280;57649;42.968;1.608;2023-10-19T02:48:28;95324.09;;;15.79;100.00
70254;BME280;57649;42.968;1.608;2023-10-19T02:50:53;95322.44;;;15.78;100.00
70254;BME280;57649;42.968;1.608;2023-10-19T02:53:19;95330.06;;;15.81;100.00
70254;BME280;57649;42.968;1.608;2023-10-19T02:55:44;95339.38;;;15.73;100.00
70254;BME280;57649;42.968;1.608;2023-10-19T02:58:10;95335.28;;;15.71;100.00
70254;BME280;57649;42.968;1.608;2023-10-19T03:00:39;95310.38;;;15.64;100.00
70254;BME280;57649;42.968;1.608;2023-10-19T03:03:05;95297.97;;;15.63;100.00
70254;BME280;57649;42.968;1.608;2023-10-19T03:05:31;95296.25;;;15.56;100.00
70254;BME280;57649;42.968;1.608;2023-10-19T03:07:56;95297.91;;;15.57;100.00
70254;BME280;57649;42.968;1.608;2023-10-19T03:10:22;95273.72;;;15.63;100.00
70254;BME280;57649;42.968;1.608;2023-10-19T03:13:00;95262.63;;;15.64;100.00
70254;BME280;57649;42.968;1.608;2023-10-19T03:15:26;95244.72;;;15.75;100.00
70254;BME280;57649;42.968;1.608;2023-10-19T03:17:55;95237.38;;;15.70;100.00
70254;BME280;57649;42.968;1.608;2023-10-19T03:20:20;95228.19;;;15.71;100.00
70254;BME280;57649;42.968;1.608;2023-10-19T03:22:49;95225.25;;;15.73;100.00
70254;BME280;57649;42.968;1.608;2023-10-19T03:25:14;95228.72;;;15.68;100.00
70254;BME280;57649;42.968;1.608;2023-10-19T03:28:00;95228.91;;;15.62;100.00
70254;BME280;57649;42.968;1.608;2023-10-19T03:30:36;95230.97;;;15.54;100.00
70254;BME280;57649;42.968;1.608;2023-10-19T03:33:08;95228.28;;;15.54;100.00
70254;BME280;57649;42.968;1.608;2023-10-19T03:35:38;95226.38;;;15.50;100.00
70254;BME280;57649;42.968;1.608;2023-10-19T03:38:06;95229.88;;;15.50;100.00
70254;BME280;57649;42.968;1.608;2023-10-19T03:40:40;95247.38;;;15.48;100.00
70254;BME280;57649;42.968;1.608;2023-10-19T03:43:05;95260.03;;;15.47;100.00
70254;BME280;57649;42.968;1.608;2023-10-19T03:45:42;95261.03;;;15.41;100.00
70254;BME280;57649;42.968;1.608;2023-10-19T03:48:17;95263.47;;;15.20;100.00
70254;BME280;57649;42.968;1.608;2023-10-19T03:50:43;95254.31;;;15.21;100.00
70254;BME280;57649;42.968;1.608;2023-10-19T03:53:08;95249.53;;;15.07;100.00
70254;BME280;57649;42.968;1.608;2023-10-19T03:55:38;95255.31;;;15.15;100.00
70254;BME280;57649;42.968;1.608;2023-10-19T03:58:04;95252.34;;;14.95;100.00
70254;BME280;57649;42.968;1.608;2023-10-19T04:00:30;95240.69;;;14.89;100.00
70254;BME280;57649;42.968;1.608;2023-10-19T04:02:58;95234.06;;;14.97;100.00
70254;BME280;57649;42.968;1.608;2023-10-19T04:05:24;95232.56;;;15.06;100.00
70254;BME280;57649;42.968;1.608;2023-10-19T04:07:51;95240.91;;;15.05;100.00
70254;BME280;57649;42.968;1.608;2023-10-19T04:10:26;95236.88;;;15.07;100.00
70254;BME280;57649;42.968;1.608;2023-10-19T04:12:55;95229.66;;;15.13;100.00
70254;BME280;57649;42.968;1.608;2023-10-19T04:15:20;95229.25;;;15.21;100.00
70254;BME280;57649;42.968;1.608;2023-10-19T04:17:47;95235.75;;;15.25;100.00
70254;BME280;57649;42.968;1.608;2023-10-19T04:20:16;95246.63;;;15.30;100.00
70254;BME280;57649;42.968;1.608;2023-10-19T04:22:49;95236.94;;;15.34;100.00
70254;BME280;57649;42.968;1.608;2023-10-19T04:25:16;95229.81;;;15.23;100.00
70254;BME280;57649;42.968;1.608;2023-10-19T04:27:46;95225.38;;;15.12;100.00
70254;BME280;57649;42.968;1.608;2023-10-19T04:30:12;95220.53;;;15.14;100.00
70254;BME280;57649;42.968;1.608;2023-10-19T04:32:45;95216.41;;;15.06;100.00
70254;BME280;57649;42.968;1.608;2023-10-19T04:35:11;95201.84;;;15.07;100.00
70254;BME280;57649;42.968;1.608;2023-10-19T04:37:38;95197.34;;;15.13;100.00
70254;BME280;57649;42.968;1.608;2023-10-19T04:40:08;95187.69;;;14.95;100.00
70254;BME280;57649;42.968;1.608;2023-10-19T04:42:34;95164.34;;;15.00;100.00
70254;BME280;57649;42.968;1.608;2023-10-19T04:44:59;95140.72;;;14.86;100.00
70254;BME280;57649;42.968;1.608;2023-10-19T04:47:24;95164.75;;;14.70;100.00
70254;BME280;57649;42.968;1.608;2023-10-19T04:49:50;95166.88;;;14.68;100.00
70254;BME280;57649;42.968;1.608;2023-10-19T04:52:15;95152.84;;;14.66;100.00
70254;BME280;57649;42.968;1.608;2023-10-19T04:54:41;95137.16;;;14.80;100.00
70254;BME280;57649;42.968;1.608;2023-10-19T04:57:07;95153.31;;;14.80;100.00
70254;BME280;57649;42.968;1.608;2023-10-19T04:59:32;95158.06;;;14.73;100.00
70254;BME280;57649;42.968;1.608;2023-10-19T05:01:58;95170.69;;;14.72;100.00
70254;BME280;57649;42.968;1.608;2023-10-19T05:04:27;95154.53;;;14.72;100.00
70254;BME280;57649;42.968;1.608;2023-10-19T05:06:53;95156.50;;;14.77;100.00
70254;BME280;57649;42.968;1.608;2023-10-19T05:09:19;95149.38;;;14.71;100.00
70254;BME280;57649;42.968;1.608;2023-10-19T05:11:44;95143.25;;;14.75;100.00
70254;BME280;57649;42.968;1.608;2023-10-19T05:14:12;95144.38;;;14.57;100.00
70254;BME280;57649;42.968;1.608;2023-10-19T05:16:39;95136.59;;;14.61;100.00
70254;BME280;57649;42.968;1.608;2023-10-19T05:19:05;95146.97;;;14.52;100.00
70254;BME280;57649;42.968;1.608;2023-10-19T05:21:30;95140.69;;;14.47;100.00
70254;BME280;57649;42.968;1.608;2023-10-19T05:23:56;95145.59;;;14.50;100.00
70254;BME280;57649;42.968;1.608;2023-10-19T05:26:21;95147.63;;;14.59;100.00
70254;BME280;57649;42.968;1.608;2023-10-19T05:28:47;95160.84;;;14.61;100.00
70254;BME280;57649;42.968;1.608;2023-10-19T05:31:13;95152.78;;;14.44;100.00
70254;BME280;57649;42.968;1.608;2023-10-19T05:33:39;95165.44;;;14.43;100.00
70254;BME280;57649;42.968;1.608;2023-10-19T05:36:05;95155.72;;;14.42;100.00
70254;BME280;57649;42.968;1.608;2023-10-19T05:38:31;95152.78;;;14.44;100.00
70254;BME280;57649;42.968;1.608;2023-10-19T05:40:58;95121.78;;;14.41;100.00
70254;BME280;57649;42.968;1.608;2023-10-19T05:43:25;95106.88;;;14.34;100.00
70254;BME280;57649;42.968;1.608;2023-10-19T05:45:50;95094.25;;;14.34;100.00
70254;BME280;57649;42.968;1.608;2023-10-19T05:48:16;95094.25;;;14.34;100.00
70254;BME280;57649;42.968;1.608;2023-10-19T05:50:42;95101.44;;;14.29;100.00
70254;BME280;57649;42.968;1.608;2023-10-19T05:53:08;95091.28;;;14.36;100.00
70254;BME280;57649;42.968;1.608;2023-10-19T05:55:33;95097.41;;;14.31;100.00
70254;BME280;57649;42.968;1.608;2023-10-19T05:58:02;95090.72;;;14.34;100.00
70254;BME280;57649;42.968;1.608;2023-10-19T06:00:30;95087.16;;;14.28;100.00
70254;BME280;57649;42.968;1.608;2023-10-19T06:02:56;95077.69;;;14.25;100.00
70254;BME280;57649;42.968;1.608;2023-10-19T06:05:23;95072.00;;;14.22;100.00
70254;BME280;57649;42.968;1.608;2023-10-19T06:07:49;95091.31;;;14.19;100.00
70254;BME280;57649;42.968;1.608;2023-10-19T06:10:20;95094.22;;;14.12;100.00
70254;BME280;57649;42.968;1.608;2023-10-19T06:12:51;95105.91;;;14.23;100.00
70254;BME280;57649;42.968;1.608;2023-10-19T06:15:19;95120.88;;;14.36;100.00
70254;BME280;57649;42.968;1.608;2023-10-19T06:17:46;95102.81;;;14.31;100.00
70254;BME280;57649;42.968;1.608;2023-10-19T06:20:13;95070.88;;;14.18;100.00
70254;BME280;57649;42.968;1.608;2023-10-19T06:22:47;95075.50;;;14.22;100.00
70254;BME280;57649;42.968;1.608;2023-10-19T06:25:17;95074.78;;;14.27;100.00
70254;BME280;57649;42.968;1.608;2023-10-19T06:27:43;95056.59;;;14.17;100.00
70254;BME280;57649;42.968;1.608;2023-10-19T06:30:09;95066.13;;;14.25;100.00
70254;BME280;57649;42.968;1.608;2023-10-19T06:32:35;95080.47;;;14.31;100.00
70254;BME280;57649;42.968;1.608;2023-10-19T06:35:02;95081.44;;;14.24;100.00
70254;BME280;57649;42.968;1.608;2023-10-19T06:37:28;95079.72;;;14.35;100.00
70254;BME280;57649;42.968;1.608;2023-10-19T06:39:53;95042.53;;;14.32;100.00
70254;BME280;57649;42.968;1.608;2023-10-19T06:42:18;95035.06;;;14.39;100.00
70254;BME280;57649;42.968;1.608;2023-10-19T06:44:44;95038.78;;;14.33;100.00
70254;BME280;57649;42.968;1.608;2023-10-19T06:47:09;95066.13;;;14.25;100.00
70254;BME280;57649;42.968;1.608;2023-10-19T06:49:36;95065.34;;;14.08;100.00
70254;BME280;57649;42.968;1.608;2023-10-19T06:52:01;95054.97;;;14.16;100.00
70254;BME280;57649;42.968;1.608;2023-10-19T06:54:30;95054.28;;;14.26;100.00
70254;BME280;57649;42.968;1.608;2023-10-19T06:56:55;95054.50;;;14.41;100.00
70254;BME280;57649;42.968;1.608;2023-10-19T06:59:21;95061.88;;;14.51;100.00
70254;BME280;57649;42.968;1.608;2023-10-19T07:01:47;95051.38;;;14.50;100.00
70254;BME280;57649;42.968;1.608;2023-10-19T07:04:12;95050.25;;;14.46;100.00
70254;BME280;57649;42.968;1.608;2023-10-19T07:06:38;95051.59;;;14.48;100.00
70254;BME280;57649;42.968;1.608;2023-10-19T07:09:04;95062.13;;;14.50;100.00
70254;BME280;57649;42.968;1.608;2023-10-19T07:11:31;95067.69;;;14.43;100.00
70254;BME280;57649;42.968;1.608;2023-10-19T07:13:58;95081.38;;;14.19;100.00
70254;BME280;57649;42.968;1.608;2023-10-19T07:16:25;95077.78;;;14.31;100.00
70254;BME280;57649;42.968;1.608;2023-10-19T07:18:51;95067.44;;;14.44;100.00
70254;BME280;57649;42.968;1.608;2023-10-19T07:21:18;95073.88;;;14.60;100.00
70254;BME280;57649;42.968;1.608;2023-10-19T07:23:43;95082.34;;;14.52;100.00
70254;BME280;57649;42.968;1.608;2023-10-19T07:26:11;95081.16;;;14.60;100.00
70254;BME280;57649;42.968;1.608;2023-10-19T07:28:39;95097.44;;;14.53;100.00
70254;BME280;57649;42.968;1.608;2023-10-19T07:31:05;95093.13;;;14.52;100.00
70254;BME280;57649;42.968;1.608;2023-10-19T07:33:34;95067.16;;;14.63;100.00
70254;BME280;57649;42.968;1.608;2023-10-19T07:36:03;95071.41;;;14.81;100.00
70254;BME280;57649;42.968;1.608;2023-10-19T07:38:33;95062.63;;;14.91;100.00
70254;BME280;57649;42.968;1.608;2023-10-19T07:41:00;95064.41;;;15.02;100.00
70254;BME280;57649;42.968;1.608;2023-10-19T07:43:26;95080.94;;;14.89;100.00
70254;BME280;57649;42.968;1.608;2023-10-19T07:45:51;95084.16;;;14.86;100.00
70254;BME280;57649;42.968;1.608;2023-10-19T07:48:17;95092.22;;;15.08;100.00
70254;BME280;57649;42.968;1.608;2023-10-19T07:50:43;95100.59;;;15.11;100.00
70254;BME280;57649;42.968;1.608;2023-10-19T07:53:08;95094.75;;;15.19;100.00
70254;BME280;57649;42.968;1.608;2023-10-19T07:55:37;95101.91;;;15.36;100.00
70254;BME280;57649;42.968;1.608;2023-10-19T07:58:04;95101.00;;;15.52;100.00
70254;BME280;57649;42.968;1.608;2023-10-19T08:00:29;95099.09;;;15.53;100.00
70254;BME280;57649;42.968;1.608;2023-10-19T08:02:55;95111.88;;;15.63;100.00
70254;BME280;57649;42.968;1.608;2023-10-19T08:05:21;95125.16;;;15.69;100.00
70254;BME280;57649;42.968;1.608;2023-10-19T08:07:47;95103.00;;;15.67;100.00
70254;BME280;57649;42.968;1.608;2023-10-19T08:10:14;95103.94;;;15.78;100.00
70254;BME280;57649;42.968;1.608;2023-10-19T08:12:41;95105.31;;;15.81;100.00
70254;BME280;57649;42.968;1.608;2023-10-19T08:15:11;95101.38;;;15.93;100.00
70254;BME280;57649;42.968;1.608;2023-10-19T08:17:41;95108.66;;;15.93;100.00
70254;BME280;57649;42.968;1.608;2023-10-19T08:20:08;95117.63;;;16.04;100.00
70254;BME280;57649;42.968;1.608;2023-10-19T08:22:37;95120.94;;;16.11;100.00
70254;BME280;57649;42.968;1.608;2023-10-19T08:25:04;95128.06;;;16.27;100.00
70254;BME280;57649;42.968;1.608;2023-10-19T08:27:39;95127.31;;;16.37;100.00
70254;BME280;57649;42.968;1.608;2023-10-19T08:30:07;95112.50;;;16.45;100.00
70254;BME280;57649;42.968;1.608;2023-10-19T08:32:34;95113.88;;;16.47;100.00
70254;BME280;57649;42.968;1.608;2023-10-19T08:35:01;95104.69;;;16.48;100.00
70254;BME280;57649;42.968;1.608;2023-10-19T08:37:27;95093.38;;;16.51;100.00
70254;BME280;57649;42.968;1.608;2023-10-19T08:39:53;95098.25;;;16.54;100.00
70254;BME280;57649;42.968;1.608;2023-10-19T08:42:18;95091.81;;;16.61;100.00
70254;BME280;57649;42.968;1.608;2023-10-19T08:44:44;95091.84;;;16.66;100.00
70254;BME280;57649;42.968;1.608;2023-10-19T08:47:10;95084.56;;;16.71;100.00
70254;BME280;57649;42.968;1.608;2023-10-19T08:49:37;95073.25;;;16.80;99.25
70254;BME280;57649;42.968;1.608;2023-10-19T08:52:03;95070.63;;;16.90;100.00
70254;BME280;57649;42.968;1.608;2023-10-19T08:54:31;95076.59;;;16.97;100.00
70254;BME280;57649;42.968;1.608;2023-10-19T08:56:59;95071.47;;;17.06;100.00
70254;BME280;57649;42.968;1.608;2023-10-19T08:59:25;95084.75;;;17.18;99.88
70254;BME280;57649;42.968;1.608;2023-10-19T09:01:50;95081.00;;;17.24;99.91
70254;BME280;57649;42.968;1.608;2023-10-19T09:04:16;95067.19;;;17.15;100.00
70254;BME280;57649;42.968;1.608;2023-10-19T09:06:44;95065.03;;;17.22;100.00
70254;BME280;57649;42.968;1.608;2023-10-19T09:09:11;95054.47;;;17.21;99.30
70254;BME280;57649;42.968;1.608;2023-10-19T09:11:45;95049.63;;;17.23;99.02
70254;BME280;57649;42.968;1.608;2023-10-19T09:14:11;95053.13;;;17.28;97.25
70254;BME280;57649;42.968;1.608;2023-10-19T09:16:39;95050.16;;;17.20;96.91
70254;BME280;57649;42.968;1.608;2023-10-19T09:19:19;95042.59;;;17.17;98.47
70254;BME280;57649;42.968;1.608;2023-10-19T09:21:45;95041.75;;;17.16;99.50
70254;BME280;57649;42.968;1.608;2023-10-19T09:24:11;95031.72;;;16.96;100.00
70254;BME280;57649;42.968;1.608;2023-10-19T09:26:37;95034.44;;;17.01;100.00
70254;BME280;57649;42.968;1.608;2023-10-19T09:29:02;95033.59;;;16.90;100.00
70254;BME280;57649;42.968;1.608;2023-10-19T09:31:28;95050.00;;;16.79;100.00
70254;BME280;57649;42.968;1.608;2023-10-19T09:33:56;95062.47;;;16.80;100.00
70254;BME280;57649;42.968;1.608;2023-10-19T09:36:24;95066.75;;;16.81;100.00
70254;BME280;57649;42.968;1.608;2023-10-19T09:38:51;95054.38;;;16.85;100.00
70254;BME280;57649;42.968;1.608;2023-10-19T09:41:18;95051.69;;;16.90;100.00
70254;BME280;57649;42.968;1.608;2023-10-19T09:43:46;95033.34;;;16.97;100.00
70254;BME280;57649;42.968;1.608;2023-10-19T09:46:21;95014.72;;;17.06;100.00
70254;BME280;57649;42.968;1.608;2023-10-19T09:48:46;94990.94;;;17.08;100.00
70254;BME280;57649;42.968;1.608;2023-10-19T09:51:14;94974.72;;;17.08;100.00
70254;BME280;57649;42.968;1.608;2023-10-19T09:53:41;94982.28;;;17.06;100.00
70254;BME280;57649;42.968;1.608;2023-10-19T09:56:12;94982.00;;;17.02;100.00
70254;BME280;57649;42.968;1.608;2023-10-19T09:58:45;95001.44;;;16.89;100.00
70254;BME280;57649;42.968;1.608;2023-10-19T10:01:11;95003.56;;;16.87;100.00
70254;BME280;57649;42.968;1.608;2023-10-19T10:03:48;95007.94;;;17.03;100.00
70254;BME280;57649;42.968;1.608;2023-10-19T10:06:16;95023.69;;;17.22;100.00
70254;BME280;57649;42.968;1.608;2023-10-19T10:08:46;95024.50;;;17.43;100.00
70254;BME280;57649;42.968;1.608;2023-10-19T10:11:18;95021.50;;;17.34;100.00
70254;BME280;57649;42.968;1.608;2023-10-19T10:13:44;95018.00;;;17.34;100.00
70254;BME280;57649;42.968;1.608;2023-10-19T10:16:17;94963.94;;;17.39;100.00
70254;BME280;57649;42.968;1.608;2023-10-19T10:18:45;94916.03;;;17.44;100.00
70254;BME280;57649;42.968;1.608;2023-10-19T10:21:19;94888.69;;;17.61;100.00
70254;BME280;57649;42.968;1.608;2023-10-19T10:23:54;94888.41;;;17.68;100.00
70254;BME280;57649;42.968;1.608;2023-10-19T10:26:22;94941.72;;;17.57;100.00
70254;BME280;57649;42.968;1.608;2023-10-19T10:29:23;94957.41;;;17.45;100.00
70254;BME280;57649;42.968;1.608;2023-10-19T10:31:53;94945.78;;;17.44;100.00
70254;BME280;57649;42.968;1.608;2023-10-19T10:37:09;94920.88;;;17.73;100.00
70254;BME280;57649;42.968;1.608;2023-10-19T10:39:37;94914.38;;;17.74;98.22
70254;BME280;57649;42.968;1.608;2023-10-19T10:42:08;94913.53;;;17.84;99.63
70254;BME280;57649;42.968;1.608;2023-10-19T10:44:42;94901.31;;;18.07;100.00
70254;BME280;57649;42.968;1.608;2023-10-19T10:47:10;94902.34;;;18.16;100.00
70254;BME280;57649;42.968;1.608;2023-10-19T10:49:49;94915.59;;;18.23;100.00
70254;BME280;57649;42.968;1.608;2023-10-19T10:52:32;94910.75;;;18.70;97.99
70254;BME280;57649;42.968;1.608;2023-10-19T10:55:06;94908.50;;;18.87;97.01
70254;BME280;57649;42.968;1.608;2023-10-19T10:57:33;94885.72;;;19.22;94.47
70254;BME280;57649;42.968;1.608;2023-10-19T11:00:07;94868.53;;;19.03;91.40
70254;BME280;57649;42.968;1.608;2023-10-19T11:02:35;94872.69;;;19.24;90.14
70254;BME280;57649;42.968;1.608;2023-10-19T11:05:01;94841.03;;;19.73;87.32
70254;BME280;57649;42.968;1.608;2023-10-19T11:07:26;94830.50;;;20.15;87.44
70254;BME280;57649;42.968;1.608;2023-10-19T11:09:52;94834.53;;;20.17;86.57
70254;BME280;57649;42.968;1.608;2023-10-19T11:12:17;94827.88;;;19.86;86.44
70254;BME280;57649;42.968;1.608;2023-10-19T11:14:55;94824.50;;;19.94;84.26
70254;BME280;57649;42.968;1.608;2023-10-19T11:17:21;94839.78;;;19.90;85.32
70254;BME280;57649;42.968;1.608;2023-10-19T11:20:05;94825.28;;;19.70;84.95
70254;BME280;57649;42.968;1.608;2023-10-19T11:22:31;94811.50;;;19.67;87.11
70254;BME280;57649;42.968;1.608;2023-10-19T11:25:17;94802.91;;;19.84;87.48
70254;BME280;57649;42.968;1.608;2023-10-19T11:27:43;94774.84;;;19.69;86.80
70254;BME280;57649;42.968;1.608;2023-10-19T11:30:09;94775.25;;;19.57;91.98
70254;BME280;57649;42.968;1.608;2023-10-19T11:32:37;94773.19;;;19.49;93.42
70254;BME280;57649;42.968;1.608;2023-10-19T11:35:03;94771.06;;;19.41;90.05
70254;BME280;57649;42.968;1.608;2023-10-19T11:37:29;94751.28;;;19.65;89.89
70254;BME280;57649;42.968;1.608;2023-10-19T11:39:54;94746.00;;;19.78;90.82
70254;BME280;57649;42.968;1.608;2023-10-19T11:42:19;94745.78;;;19.94;91.18
70254;BME280;57649;42.968;1.608;2023-10-19T11:44:45;94735.06;;;20.03;89.32
70254;BME280;57649;42.968;1.608;2023-10-19T11:47:11;94735.00;;;20.08;85.31
70254;BME280;57649;42.968;1.608;2023-10-19T11:49:38;94731.31;;;20.17;86.03
70254;BME280;57649;42.968;1.608;2023-10-19T11:52:05;94726.31;;;20.25;83.18
70254;BME280;57649;42.968;1.608;2023-10-19T11:54:33;94731.41;;;20.31;84.22
70254;BME280;57649;42.968;1.608;2023-10-19T11:56:58;94729.63;;;20.41;85.62
70254;BME280;57649;42.968;1.608;2023-10-19T11:59:24;94708.09;;;20.44;84.52
70254;BME280;57649;42.968;1.608;2023-10-19T12:01:51;94687.25;;;20.39;85.26
70254;BME280;57649;42.968;1.608;2023-10-19T12:04:17;94683.94;;;20.43;87.28
70254;BME280;57649;42.968;1.608;2023-10-19T12:06:43;94692.03;;;20.48;87.50
70254;BME280;57649;42.968;1.608;2023-10-19T12:09:11;94702.88;;;20.48;87.85
70254;BME280;57649;42.968;1.608;2023-10-19T12:11:42;94711.66;;;20.58;85.48
70254;BME280;57649;42.968;1.608;2023-10-19T12:14:07;94708.38;;;20.62;84.39
70254;BME280;57649;42.968;1.608;2023-10-19T12:16:40;94712.63;;;20.68;86.96
70254;BME280;57649;42.968;1.608;2023-10-19T12:19:06;94697.13;;;20.68;86.67
70254;BME280;57649;42.968;1.608;2023-10-19T12:21:33;94697.06;;;20.54;84.67
70254;BME280;57649;42.968;1.608;2023-10-19T12:23:58;94691.41;;;20.51;85.23
70254;BME280;57649;42.968;1.608;2023-10-19T12:26:26;94676.81;;;20.47;86.40
70254;BME280;57649;42.968;1.608;2023-10-19T12:28:52;94665.44;;;20.45;85.91
70254;BME280;57649;42.968;1.608;2023-10-19T12:31:18;94650.63;;;20.37;84.24
70254;BME280;57649;42.968;1.608;2023-10-19T12:33:44;94643.94;;;20.29;86.53
70254;BME280;57649;42.968;1.608;2023-10-19T12:36:10;94637.75;;;20.10;87.78
70254;BME280;57649;42.968;1.608;2023-10-19T12:38:55;94647.16;;;19.98;88.19
70254;BME280;57649;42.968;1.608;2023-10-19T12:41:20;94646.03;;;19.99;87.53
70254;BME280;57649;42.968;1.608;2023-10-19T12:43:46;94644.13;;;20.00;88.16
70254;BME280;57649;42.968;1.608;2023-10-19T12:46:13;94652.38;;;19.95;90.15
70254;BME280;57649;42.968;1.608;2023-10-19T12:48:40;94654.91;;;20.05;92.95
70254;BME280;57649;42.968;1.608;2023-10-19T12:51:05;94661.91;;;19.92;92.93
70254;BME280;57649;42.968;1.608;2023-10-19T12:53:36;94646.41;;;19.74;93.19
70254;BME280;57649;42.968;1.608;2023-10-19T12:56:04;94678.47;;;19.91;93.22
70254;BME280;57649;42.968;1.608;2023-10-19T12:58:30;94674.28;;;19.79;92.11
70254;BME280;57649;42.968;1.608;2023-10-19T13:00:57;94679.88;;;19.88;93.46